sensor_id;sensor_type;location;lat;lon;timestamp;P1;durP1;ratioP1;P2;durP2;ratioP2
24901;SDS011;31328;51.402;0.016;2022-09-17T00:01:07;2.60;;;0.40;;
24901;SDS011;31328;51.402;0.016;2022-09-17T00:03:35;1.30;;;0.30;;
24901;SDS011;31328;51.402;0.016;2022-09-17T00:06:02;2.63;;;0.50;;
24901;SDS011;31328;51.402;0.016;2022-09-17T00:08:31;3.20;;;0.93;;
24901;SDS011;31328;51.402;0.016;2022-09-17T00:11:04;1.43;;;0.40;;
24901;SDS011;31328;51.402;0.016;2022-09-17T00:13:35;0.83;;;0.27;;
24901;SDS011;31328;51.402;0.016;2022-09-17T00:16:01;2.10;;;0.43;;
24901;SDS011;31328;51.402;0.016;2022-09-17T00:18:28;2.07;;;0.50;;
24901;SDS011;31328;51.402;0.016;2022-09-17T00:20:54;2.70;;;0.47;;
24901;SDS011;31328;51.402;0.016;2022-09-17T00:23:20;1.10;;;0.50;;
24901;SDS011;31328;51.402;0.016;2022-09-17T00:25:47;2.57;;;0.50;;
24901;SDS011;31328;51.402;0.016;2022-09-17T00:28:13;1.83;;;0.50;;
24901;SDS011;31328;51.402;0.016;2022-09-17T00:30:41;0.70;;;0.33;;
24901;SDS011;31328;51.402;0.016;2022-09-17T00:33:13;2.57;;;0.80;;
24901;SDS011;31328;51.402;0.016;2022-09-17T00:35:40;3.33;;;0.67;;
24901;SDS011;31328;51.402;0.016;2022-09-17T00:38:07;1.83;;;0.40;;
24901;SDS011;31328;51.402;0.016;2022-09-17T00:40:34;0.90;;;0.40;;
24901;SDS011;31328;51.402;0.016;2022-09-17T00:43:01;1.23;;;0.30;;
24901;SDS011;31328;51.402;0.016;2022-09-17T00:45:28;2.27;;;0.70;;
24901;SDS011;31328;51.402;0.016;2022-09-17T00:47:58;2.00;;;0.47;;
24901;SDS011;31328;51.402;0.016;2022-09-17T00:52:56;0.53;;;0.30;;
24901;SDS011;31328;51.402;0.016;2022-09-17T00:55:36;0.43;;;0.30;;
24901;SDS011;31328;51.402;0.016;2022-09-17T00:58:14;0.43;;;0.20;;
24901;SDS011;31328;51.402;0.016;2022-09-17T01:00:42;0.83;;;0.33;;
24901;SDS011;31328;51.402;0.016;2022-09-17T01:03:11;1.33;;;0.40;;
24901;SDS011;31328;51.402;0.016;2022-09-17T01:10:58;0.73;;;0.20;;
24901;SDS011;31328;51.402;0.016;2022-09-17T01:13:38;3.23;;;0.50;;
24901;SDS011;31328;51.402;0.016;2022-09-17T01:16:27;3.33;;;0.63;;
24901;SDS011;31328;51.402;0.016;2022-09-17T01:22:02;0.63;;;0.30;;
24901;SDS011;31328;51.402;0.016;2022-09-17T01:33:14;0.33;;;0.20;;
24901;SDS011;31328;51.402;0.016;2022-09-17T01:38:32;2.13;;;0.30;;
24901;SDS011;31328;51.402;0.016;2022-09-17T01:43:51;0.20;;;0.20;;
24901;SDS011;31328;51.402;0.016;2022-09-17T01:49:01;1.58;;;0.45;;
24901;SDS011;31328;51.402;0.016;2022-09-17T01:51:31;2.00;;;0.60;;
24901;SDS011;31328;51.402;0.016;2022-09-17T01:54:24;2.73;;;0.50;;
24901;SDS011;31328;51.402;0.016;2022-09-17T01:57:12;1.70;;;0.40;;
24901;SDS011;31328;51.402;0.016;2022-09-17T01:59:47;0.37;;;0.20;;
24901;SDS011;31328;51.402;0.016;2022-09-17T02:05:11;0.43;;;0.30;;
24901;SDS011;31328;51.402;0.016;2022-09-17T02:07:52;1.13;;;0.30;;
24901;SDS011;31328;51.402;0.016;2022-09-17T02:10:26;2.10;;;0.40;;
24901;SDS011;31328;51.402;0.016;2022-09-17T02:12:57;2.07;;;0.40;;
24901;SDS011;31328;51.402;0.016;2022-09-17T02:15:32;5.50;;;0.50;;
24901;SDS011;31328;51.402;0.016;2022-09-17T02:18:06;0.93;;;0.50;;
24901;SDS011;31328;51.402;0.016;2022-09-17T02:20:47;2.33;;;0.50;;
24901;SDS011;31328;51.402;0.016;2022-09-17T02:23:20;2.23;;;0.70;;
24901;SDS011;31328;51.402;0.016;2022-09-17T02:25:57;2.28;;;0.40;;
24901;SDS011;31328;51.402;0.016;2022-09-17T02:31:05;4.27;;;0.57;;
24901;SDS011;31328;51.402;0.016;2022-09-17T02:33:32;3.07;;;0.50;;
24901;SDS011;31328;51.402;0.016;2022-09-17T02:36:00;0.50;;;0.30;;
24901;SDS011;31328;51.402;0.016;2022-09-17T02:38:28;0.77;;;0.30;;
24901;SDS011;31328;51.402;0.016;2022-09-17T02:41:01;0.77;;;0.77;;
24901;SDS011;31328;51.402;0.016;2022-09-17T02:43:34;1.40;;;0.40;;
24901;SDS011;31328;51.402;0.016;2022-09-17T02:57:53;3.20;;;0.47;;
24901;SDS011;31328;51.402;0.016;2022-09-17T03:00:37;2.50;;;0.73;;
24901;SDS011;31328;51.402;0.016;2022-09-17T03:03:25;1.60;;;0.50;;
24901;SDS011;31328;51.402;0.016;2022-09-17T03:05:56;1.70;;;0.60;;
24901;SDS011;31328;51.402;0.016;2022-09-17T03:08:28;1.30;;;0.53;;
24901;SDS011;31328;51.402;0.016;2022-09-17T03:10:58;1.75;;;0.70;;
24901;SDS011;31328;51.402;0.016;2022-09-17T03:13:25;1.40;;;0.63;;
24901;SDS011;31328;51.402;0.016;2022-09-17T03:15:51;1.73;;;0.67;;
24901;SDS011;31328;51.402;0.016;2022-09-17T03:18:17;1.87;;;0.67;;
24901;SDS011;31328;51.402;0.016;2022-09-17T03:20:44;2.30;;;0.83;;
24901;SDS011;31328;51.402;0.016;2022-09-17T03:23:11;3.33;;;0.77;;
24901;SDS011;31328;51.402;0.016;2022-09-17T03:25:37;1.60;;;0.60;;
24901;SDS011;31328;51.402;0.016;2022-09-17T03:28:03;1.17;;;0.70;;
24901;SDS011;31328;51.402;0.016;2022-09-17T03:30:30;2.63;;;0.60;;
24901;SDS011;31328;51.402;0.016;2022-09-17T03:32:56;2.80;;;1.00;;
24901;SDS011;31328;51.402;0.016;2022-09-17T03:35:22;1.67;;;0.60;;
24901;SDS011;31328;51.402;0.016;2022-09-17T03:37:50;2.13;;;0.70;;
24901;SDS011;31328;51.402;0.016;2022-09-17T03:40:17;1.83;;;0.60;;
24901;SDS011;31328;51.402;0.016;2022-09-17T03:42:44;3.27;;;0.90;;
24901;SDS011;31328;51.402;0.016;2022-09-17T03:45:10;3.53;;;1.00;;
24901;SDS011;31328;51.402;0.016;2022-09-17T03:47:37;2.97;;;0.73;;
24901;SDS011;31328;51.402;0.016;2022-09-17T03:50:03;4.23;;;0.63;;
24901;SDS011;31328;51.402;0.016;2022-09-17T03:52:31;2.10;;;0.77;;
24901;SDS011;31328;51.402;0.016;2022-09-17T03:54:57;5.10;;;1.50;;
24901;SDS011;31328;51.402;0.016;2022-09-17T03:57:23;1.57;;;0.50;;
24901;SDS011;31328;51.402;0.016;2022-09-17T03:59:50;2.20;;;0.67;;
24901;SDS011;31328;51.402;0.016;2022-09-17T04:02:16;2.07;;;0.87;;
24901;SDS011;31328;51.402;0.016;2022-09-17T04:04:42;2.80;;;1.00;;
24901;SDS011;31328;51.402;0.016;2022-09-17T04:07:09;2.70;;;0.77;;
24901;SDS011;31328;51.402;0.016;2022-09-17T04:09:35;1.37;;;0.50;;
24901;SDS011;31328;51.402;0.016;2022-09-17T04:12:01;2.77;;;0.83;;
24901;SDS011;31328;51.402;0.016;2022-09-17T04:14:28;2.93;;;0.70;;
24901;SDS011;31328;51.402;0.016;2022-09-17T04:16:54;0.77;;;0.50;;
24901;SDS011;31328;51.402;0.016;2022-09-17T04:19:22;1.83;;;0.53;;
24901;SDS011;31328;51.402;0.016;2022-09-17T04:21:49;1.80;;;0.87;;
24901;SDS011;31328;51.402;0.016;2022-09-17T04:24:15;1.27;;;0.60;;
24901;SDS011;31328;51.402;0.016;2022-09-17T04:26:42;2.17;;;0.80;;
24901;SDS011;31328;51.402;0.016;2022-09-17T04:29:08;3.00;;;0.80;;
24901;SDS011;31328;51.402;0.016;2022-09-17T04:31:34;1.93;;;0.73;;
24901;SDS011;31328;51.402;0.016;2022-09-17T04:34:01;3.10;;;0.80;;
24901;SDS011;31328;51.402;0.016;2022-09-17T04:36:28;3.20;;;0.60;;
24901;SDS011;31328;51.402;0.016;2022-09-17T04:38:54;2.33;;;0.70;;
24901;SDS011;31328;51.402;0.016;2022-09-17T04:41:20;1.07;;;0.83;;
24901;SDS011;31328;51.402;0.016;2022-09-17T04:43:47;2.47;;;1.10;;
24901;SDS011;31328;51.402;0.016;2022-09-17T04:46:13;1.70;;;0.60;;
24901;SDS011;31328;51.402;0.016;2022-09-17T04:48:41;2.10;;;1.00;;
24901;SDS011;31328;51.402;0.016;2022-09-17T04:51:08;6.13;;;1.73;;
24901;SDS011;31328;51.402;0.016;2022-09-17T04:53:34;6.20;;;1.30;;
24901;SDS011;31328;51.402;0.016;2022-09-17T04:56:00;3.00;;;0.93;;
24901;SDS011;31328;51.402;0.016;2022-09-17T04:58:27;1.63;;;0.80;;
24901;SDS011;31328;51.402;0.016;2022-09-17T05:00:55;3.93;;;1.50;;
24901;SDS011;31328;51.402;0.016;2022-09-17T05:03:22;2.10;;;0.93;;
24901;SDS011;31328;51.402;0.016;2022-09-17T05:05:48;2.03;;;1.07;;
24901;SDS011;31328;51.402;0.016;2022-09-17T05:08:14;1.27;;;0.60;;
24901;SDS011;31328;51.402;0.016;2022-09-17T05:10:41;2.23;;;1.30;;
24901;SDS011;31328;51.402;0.016;2022-09-17T05:13:07;5.47;;;1.17;;
24901;SDS011;31328;51.402;0.016;2022-09-17T05:15:33;2.13;;;0.83;;
24901;SDS011;31328;51.402;0.016;2022-09-17T05:18:00;1.50;;;0.80;;
24901;SDS011;31328;51.402;0.016;2022-09-17T05:20:26;1.70;;;0.80;;
24901;SDS011;31328;51.402;0.016;2022-09-17T05:22:52;3.73;;;1.13;;
24901;SDS011;31328;51.402;0.016;2022-09-17T05:25:19;1.83;;;0.90;;
24901;SDS011;31328;51.402;0.016;2022-09-17T05:27:53;3.03;;;1.00;;
24901;SDS011;31328;51.402;0.016;2022-09-17T05:30:21;3.20;;;0.70;;
24901;SDS011;31328;51.402;0.016;2022-09-17T05:32:47;2.23;;;0.70;;
24901;SDS011;31328;51.402;0.016;2022-09-17T05:35:14;3.13;;;1.03;;
24901;SDS011;31328;51.402;0.016;2022-09-17T05:37:40;1.10;;;0.73;;
24901;SDS011;31328;51.402;0.016;2022-09-17T05:40:07;2.43;;;0.90;;
24901;SDS011;31328;51.402;0.016;2022-09-17T05:42:33;2.40;;;0.90;;
24901;SDS011;31328;51.402;0.016;2022-09-17T05:45:00;1.70;;;0.80;;
24901;SDS011;31328;51.402;0.016;2022-09-17T05:47:26;8.63;;;0.80;;
24901;SDS011;31328;51.402;0.016;2022-09-17T05:49:53;1.60;;;0.63;;
24901;SDS011;31328;51.402;0.016;2022-09-17T05:52:19;2.70;;;0.87;;
24901;SDS011;31328;51.402;0.016;2022-09-17T05:54:46;1.43;;;0.60;;
24901;SDS011;31328;51.402;0.016;2022-09-17T05:57:13;2.90;;;0.90;;
24901;SDS011;31328;51.402;0.016;2022-09-17T05:59:40;2.00;;;0.80;;
24901;SDS011;31328;51.402;0.016;2022-09-17T06:02:08;1.13;;;0.80;;
24901;SDS011;31328;51.402;0.016;2022-09-17T06:04:37;1.60;;;0.70;;
24901;SDS011;31328;51.402;0.016;2022-09-17T06:07:04;3.23;;;0.77;;
24901;SDS011;31328;51.402;0.016;2022-09-17T06:09:34;3.47;;;1.20;;
24901;SDS011;31328;51.402;0.016;2022-09-17T06:12:03;3.30;;;0.77;;
24901;SDS011;31328;51.402;0.016;2022-09-17T06:14:29;2.67;;;0.90;;
24901;SDS011;31328;51.402;0.016;2022-09-17T06:16:56;1.13;;;1.03;;
24901;SDS011;31328;51.402;0.016;2022-09-17T06:19:22;2.73;;;0.90;;
24901;SDS011;31328;51.402;0.016;2022-09-17T06:21:48;2.10;;;0.93;;
24901;SDS011;31328;51.402;0.016;2022-09-17T06:24:15;1.33;;;0.63;;
24901;SDS011;31328;51.402;0.016;2022-09-17T06:26:41;2.47;;;0.90;;
24901;SDS011;31328;51.402;0.016;2022-09-17T06:29:08;1.80;;;0.60;;
24901;SDS011;31328;51.402;0.016;2022-09-17T06:31:34;2.30;;;0.90;;
24901;SDS011;31328;51.402;0.016;2022-09-17T06:34:01;1.33;;;0.80;;
24901;SDS011;31328;51.402;0.016;2022-09-17T06:36:27;1.00;;;0.70;;
24901;SDS011;31328;51.402;0.016;2022-09-17T06:38:53;1.40;;;0.93;;
24901;SDS011;31328;51.402;0.016;2022-09-17T06:41:20;1.97;;;1.53;;
24901;SDS011;31328;51.402;0.016;2022-09-17T06:43:46;6.33;;;1.20;;
24901;SDS011;31328;51.402;0.016;2022-09-17T06:46:12;2.27;;;0.97;;
24901;SDS011;31328;51.402;0.016;2022-09-17T06:48:39;1.20;;;0.80;;
24901;SDS011;31328;51.402;0.016;2022-09-17T06:51:06;0.70;;;0.70;;
24901;SDS011;31328;51.402;0.016;2022-09-17T06:53:35;2.50;;;1.00;;
24901;SDS011;31328;51.402;0.016;2022-09-17T06:56:02;3.23;;;0.90;;
24901;SDS011;31328;51.402;0.016;2022-09-17T06:58:30;1.30;;;0.60;;
24901;SDS011;31328;51.402;0.016;2022-09-17T07:00:58;0.83;;;0.70;;
24901;SDS011;31328;51.402;0.016;2022-09-17T07:03:28;3.07;;;1.03;;
24901;SDS011;31328;51.402;0.016;2022-09-17T07:05:55;1.37;;;0.80;;
24901;SDS011;31328;51.402;0.016;2022-09-17T07:08:22;3.67;;;1.27;;
24901;SDS011;31328;51.402;0.016;2022-09-17T07:10:49;2.17;;;1.30;;
24901;SDS011;31328;51.402;0.016;2022-09-17T07:13:15;1.93;;;0.80;;
24901;SDS011;31328;51.402;0.016;2022-09-17T07:15:42;1.37;;;1.00;;
24901;SDS011;31328;51.402;0.016;2022-09-17T07:18:11;1.47;;;1.00;;
24901;SDS011;31328;51.402;0.016;2022-09-17T07:20:37;2.97;;;0.87;;
24901;SDS011;31328;51.402;0.016;2022-09-17T07:23:04;2.40;;;1.07;;
24901;SDS011;31328;51.402;0.016;2022-09-17T07:25:30;3.80;;;1.00;;
24901;SDS011;31328;51.402;0.016;2022-09-17T07:27:56;2.40;;;1.13;;
24901;SDS011;31328;51.402;0.016;2022-09-17T07:30:23;1.97;;;1.03;;
24901;SDS011;31328;51.402;0.016;2022-09-17T07:32:49;3.23;;;1.10;;
24901;SDS011;31328;51.402;0.016;2022-09-17T07:35:15;3.93;;;1.30;;
24901;SDS011;31328;51.402;0.016;2022-09-17T07:37:42;2.03;;;0.80;;
24901;SDS011;31328;51.402;0.016;2022-09-17T07:40:08;2.53;;;0.93;;
24901;SDS011;31328;51.402;0.016;2022-09-17T07:42:35;3.63;;;1.20;;
24901;SDS011;31328;51.402;0.016;2022-09-17T07:45:01;2.20;;;0.80;;
24901;SDS011;31328;51.402;0.016;2022-09-17T07:47:27;3.33;;;1.10;;
24901;SDS011;31328;51.402;0.016;2022-09-17T07:49:54;1.20;;;0.70;;
24901;SDS011;31328;51.402;0.016;2022-09-17T07:52:20;2.83;;;0.50;;
24901;SDS011;31328;51.402;0.016;2022-09-17T07:54:46;2.97;;;0.77;;
24901;SDS011;31328;51.402;0.016;2022-09-17T07:57:13;1.00;;;0.60;;
24901;SDS011;31328;51.402;0.016;2022-09-17T07:59:39;1.40;;;0.57;;
24901;SDS011;31328;51.402;0.016;2022-09-17T08:02:08;1.70;;;1.00;;
24901;SDS011;31328;51.402;0.016;2022-09-17T08:04:40;2.53;;;0.73;;
24901;SDS011;31328;51.402;0.016;2022-09-17T08:07:11;2.10;;;0.60;;
24901;SDS011;31328;51.402;0.016;2022-09-17T08:09:38;2.33;;;0.60;;
24901;SDS011;31328;51.402;0.016;2022-09-17T08:12:04;1.43;;;0.47;;
24901;SDS011;31328;51.402;0.016;2022-09-17T08:14:31;2.33;;;0.47;;
24901;SDS011;31328;51.402;0.016;2022-09-17T08:16:57;0.87;;;0.30;;
24901;SDS011;31328;51.402;0.016;2022-09-17T08:19:23;2.83;;;0.30;;
24901;SDS011;31328;51.402;0.016;2022-09-17T08:21:50;2.07;;;0.40;;
24901;SDS011;31328;51.402;0.016;2022-09-17T08:24:16;2.17;;;0.30;;
24901;SDS011;31328;51.402;0.016;2022-09-17T08:26:43;1.27;;;0.30;;
24901;SDS011;31328;51.402;0.016;2022-09-17T08:29:09;1.60;;;0.50;;
24901;SDS011;31328;51.402;0.016;2022-09-17T08:31:35;1.90;;;0.40;;
24901;SDS011;31328;51.402;0.016;2022-09-17T08:34:05;2.13;;;0.60;;
24901;SDS011;31328;51.402;0.016;2022-09-17T08:36:33;1.27;;;0.20;;
24901;SDS011;31328;51.402;0.016;2022-09-17T08:39:00;1.67;;;0.57;;
24901;SDS011;31328;51.402;0.016;2022-09-17T08:49:15;1.10;;;0.40;;
24901;SDS011;31328;51.402;0.016;2022-09-17T09:02:40;1.90;;;0.40;;
24901;SDS011;31328;51.402;0.016;2022-09-17T09:05:19;0.57;;;0.30;;
24901;SDS011;31328;51.402;0.016;2022-09-17T09:07:51;1.92;;;0.40;;
24901;SDS011;31328;51.402;0.016;2022-09-17T09:12:52;0.30;;;0.10;;
24901;SDS011;31328;51.402;0.016;2022-09-17T09:17:52;1.52;;;0.20;;
24901;SDS011;31328;51.402;0.016;2022-09-17T09:20:23;0.90;;;0.15;;
24901;SDS011;31328;51.402;0.016;2022-09-17T09:22:57;0.52;;;0.52;;
24901;SDS011;31328;51.402;0.016;2022-09-17T09:25:36;1.48;;;0.40;;
24901;SDS011;31328;51.402;0.016;2022-09-17T09:31:04;0.70;;;0.28;;
24901;SDS011;31328;51.402;0.016;2022-09-17T09:33:38;1.27;;;0.20;;
24901;SDS011;31328;51.402;0.016;2022-09-17T09:36:07;0.77;;;0.20;;
24901;SDS011;31328;51.402;0.016;2022-09-17T09:38:58;0.88;;;0.25;;
24901;SDS011;31328;51.402;0.016;2022-09-17T09:41:31;2.00;;;0.38;;
24901;SDS011;31328;51.402;0.016;2022-09-17T09:44:12;2.42;;;0.40;;
24901;SDS011;31328;51.402;0.016;2022-09-17T09:57:43;2.42;;;0.68;;
24901;SDS011;31328;51.402;0.016;2022-09-17T10:00:28;1.27;;;0.43;;
24901;SDS011;31328;51.402;0.016;2022-09-17T10:02:58;2.20;;;0.30;;
24901;SDS011;31328;51.402;0.016;2022-09-17T10:06:03;0.20;;;0.10;;
24901;SDS011;31328;51.402;0.016;2022-09-17T10:08:33;1.98;;;0.25;;
24901;SDS011;31328;51.402;0.016;2022-09-17T10:11:02;3.13;;;0.40;;
24901;SDS011;31328;51.402;0.016;2022-09-17T10:13:32;0.52;;;0.10;;
24901;SDS011;31328;51.402;0.016;2022-09-17T10:18:46;1.30;;;0.38;;
24901;SDS011;31328;51.402;0.016;2022-09-17T10:21:18;1.73;;;0.20;;
24901;SDS011;31328;51.402;0.016;2022-09-17T10:23:46;0.80;;;0.30;;
24901;SDS011;31328;51.402;0.016;2022-09-17T10:29:12;2.05;;;0.28;;
24901;SDS011;31328;51.402;0.016;2022-09-17T10:31:49;0.98;;;0.47;;
24901;SDS011;31328;51.402;0.016;2022-09-17T10:34:26;0.97;;;0.63;;
24901;SDS011;31328;51.402;0.016;2022-09-17T10:36:55;0.50;;;0.17;;
24901;SDS011;31328;51.402;0.016;2022-09-17T10:44:26;2.95;;;0.30;;
24901;SDS011;31328;51.402;0.016;2022-09-17T10:47:12;1.15;;;0.20;;
24901;SDS011;31328;51.402;0.016;2022-09-17T10:50:00;0.20;;;0.20;;
24901;SDS011;31328;51.402;0.016;2022-09-17T10:52:39;0.55;;;0.32;;
24901;SDS011;31328;51.402;0.016;2022-09-17T10:58:00;0.93;;;0.30;;
24901;SDS011;31328;51.402;0.016;2022-09-17T11:08:30;0.70;;;0.10;;
24901;SDS011;31328;51.402;0.016;2022-09-17T11:11:42;0.20;;;0.10;;
24901;SDS011;31328;51.402;0.016;2022-09-17T11:17:11;0.70;;;0.28;;
24901;SDS011;31328;51.402;0.016;2022-09-17T11:20:02;1.75;;;0.98;;
24901;SDS011;31328;51.402;0.016;2022-09-17T11:40:07;0.20;;;0.20;;
24901;SDS011;31328;51.402;0.016;2022-09-17T11:42:40;1.08;;;0.30;;
24901;SDS011;31328;51.402;0.016;2022-09-17T11:45:14;1.38;;;0.40;;
24901;SDS011;31328;51.402;0.016;2022-09-17T11:47:45;1.65;;;0.28;;
24901;SDS011;31328;51.402;0.016;2022-09-17T11:50:24;0.55;;;0.17;;
24901;SDS011;31328;51.402;0.016;2022-09-17T11:58:57;1.42;;;0.32;;
24901;SDS011;31328;51.402;0.016;2022-09-17T12:04:04;0.40;;;0.20;;
24901;SDS011;31328;51.402;0.016;2022-09-17T12:06:53;1.65;;;0.32;;
24901;SDS011;31328;51.402;0.016;2022-09-17T12:09:25;1.15;;;0.30;;
24901;SDS011;31328;51.402;0.016;2022-09-17T12:14:30;0.65;;;0.30;;
24901;SDS011;31328;51.402;0.016;2022-09-17T12:17:02;1.30;;;0.30;;
24901;SDS011;31328;51.402;0.016;2022-09-17T12:22:11;0.98;;;0.40;;
24901;SDS011;31328;51.402;0.016;2022-09-17T12:24:40;0.85;;;0.20;;
24901;SDS011;31328;51.402;0.016;2022-09-17T12:48:55;0.60;;;0.35;;
24901;SDS011;31328;51.402;0.016;2022-09-17T12:51:44;1.05;;;0.40;;
24901;SDS011;31328;51.402;0.016;2022-09-17T13:00:10;1.30;;;0.38;;
24901;SDS011;31328;51.402;0.016;2022-09-17T13:11:19;0.90;;;0.22;;
24901;SDS011;31328;51.402;0.016;2022-09-17T13:13:59;1.15;;;0.40;;
24901;SDS011;31328;51.402;0.016;2022-09-17T13:19:49;1.08;;;0.25;;
24901;SDS011;31328;51.402;0.016;2022-09-17T13:22:26;0.35;;;0.20;;
24901;SDS011;31328;51.402;0.016;2022-09-17T13:25:03;1.73;;;0.20;;
24901;SDS011;31328;51.402;0.016;2022-09-17T13:27:34;1.13;;;0.22;;
24901;SDS011;31328;51.402;0.016;2022-09-17T13:30:03;1.55;;;0.40;;
24901;SDS011;31328;51.402;0.016;2022-09-17T13:45:31;1.17;;;0.50;;
24901;SDS011;31328;51.402;0.016;2022-09-17T13:47:59;1.08;;;0.40;;
24901;SDS011;31328;51.402;0.016;2022-09-17T13:55:38;0.45;;;0.40;;
24901;SDS011;31328;51.402;0.016;2022-09-17T14:18:58;2.50;;;0.30;;
24901;SDS011;31328;51.402;0.016;2022-09-17T14:21:29;0.77;;;0.30;;
24901;SDS011;31328;51.402;0.016;2022-09-17T14:23:59;1.00;;;0.40;;
24901;SDS011;31328;51.402;0.016;2022-09-17T14:32:17;1.15;;;0.40;;
24901;SDS011;31328;51.402;0.016;2022-09-17T14:34:50;1.65;;;0.63;;
24901;SDS011;31328;51.402;0.016;2022-09-17T14:37:17;0.85;;;0.30;;
24901;SDS011;31328;51.402;0.016;2022-09-17T14:39:46;0.50;;;0.30;;
24901;SDS011;31328;51.402;0.016;2022-09-17T14:42:16;0.85;;;0.20;;
24901;SDS011;31328;51.402;0.016;2022-09-17T14:44:48;0.13;;;0.10;;
24901;SDS011;31328;51.402;0.016;2022-09-17T14:47:20;0.95;;;0.20;;
24901;SDS011;31328;51.402;0.016;2022-09-17T14:49:49;0.40;;;0.22;;
24901;SDS011;31328;51.402;0.016;2022-09-17T14:55:27;0.80;;;0.40;;
24901;SDS011;31328;51.402;0.016;2022-09-17T14:57:53;0.68;;;0.40;;
24901;SDS011;31328;51.402;0.016;2022-09-17T15:00:29;0.93;;;0.40;;
24901;SDS011;31328;51.402;0.016;2022-09-17T15:02:59;1.00;;;0.40;;
24901;SDS011;31328;51.402;0.016;2022-09-17T15:08:05;1.42;;;0.52;;
24901;SDS011;31328;51.402;0.016;2022-09-17T15:10:57;0.50;;;0.30;;
24901;SDS011;31328;51.402;0.016;2022-09-17T15:15:57;0.30;;;0.30;;
24901;SDS011;31328;51.402;0.016;2022-09-17T15:18:34;0.40;;;0.20;;
24901;SDS011;31328;51.402;0.016;2022-09-17T15:21:13;0.35;;;0.20;;
24901;SDS011;31328;51.402;0.016;2022-09-17T15:23:45;1.50;;;0.40;;
24901;SDS011;31328;51.402;0.016;2022-09-17T15:26:13;1.75;;;0.20;;
24901;SDS011;31328;51.402;0.016;2022-09-17T15:28:45;0.38;;;0.22;;
24901;SDS011;31328;51.402;0.016;2022-09-17T15:31:16;0.85;;;0.20;;
24901;SDS011;31328;51.402;0.016;2022-09-17T15:33:44;1.13;;;0.32;;
24901;SDS011;31328;51.402;0.016;2022-09-17T15:38:52;3.17;;;0.73;;
24901;SDS011;31328;51.402;0.016;2022-09-17T15:41:29;0.60;;;0.40;;
24901;SDS011;31328;51.402;0.016;2022-09-17T15:50:19;0.40;;;0.28;;
24901;SDS011;31328;51.402;0.016;2022-09-17T15:53:09;0.30;;;0.20;;
24901;SDS011;31328;51.402;0.016;2022-09-17T15:55:42;0.47;;;0.20;;
24901;SDS011;31328;51.402;0.016;2022-09-17T15:58:20;0.77;;;0.40;;
24901;SDS011;31328;51.402;0.016;2022-09-17T16:01:05;1.25;;;0.22;;
24901;SDS011;31328;51.402;0.016;2022-09-17T16:11:16;0.82;;;0.30;;
24901;SDS011;31328;51.402;0.016;2022-09-17T16:13:46;0.82;;;0.22;;
24901;SDS011;31328;51.402;0.016;2022-09-17T16:16:19;1.92;;;0.30;;
24901;SDS011;31328;51.402;0.016;2022-09-17T16:18:47;0.43;;;0.20;;
24901;SDS011;31328;51.402;0.016;2022-09-17T16:21:15;0.75;;;0.30;;
24901;SDS011;31328;51.402;0.016;2022-09-17T16:23:42;0.60;;;0.32;;
24901;SDS011;31328;51.402;0.016;2022-09-17T16:26:11;0.32;;;0.30;;
24901;SDS011;31328;51.402;0.016;2022-09-17T16:28:43;1.85;;;0.20;;
24901;SDS011;31328;51.402;0.016;2022-09-17T16:31:12;1.08;;;0.22;;
24901;SDS011;31328;51.402;0.016;2022-09-17T16:33:39;1.58;;;0.30;;
24901;SDS011;31328;51.402;0.016;2022-09-17T16:36:06;1.17;;;0.30;;
24901;SDS011;31328;51.402;0.016;2022-09-17T16:38:32;0.80;;;0.30;;
24901;SDS011;31328;51.402;0.016;2022-09-17T16:40:59;1.63;;;0.75;;
24901;SDS011;31328;51.402;0.016;2022-09-17T16:43:25;1.08;;;0.40;;
24901;SDS011;31328;51.402;0.016;2022-09-17T16:45:58;0.60;;;0.35;;
24901;SDS011;31328;51.402;0.016;2022-09-17T16:48:25;0.70;;;0.40;;
24901;SDS011;31328;51.402;0.016;2022-09-17T16:50:51;0.93;;;0.30;;
24901;SDS011;31328;51.402;0.016;2022-09-17T16:53:17;1.38;;;0.30;;
24901;SDS011;31328;51.402;0.016;2022-09-17T16:55:44;1.67;;;0.50;;
24901;SDS011;31328;51.402;0.016;2022-09-17T16:58:10;1.83;;;0.38;;
24901;SDS011;31328;51.402;0.016;2022-09-17T17:00:36;1.05;;;0.63;;
24901;SDS011;31328;51.402;0.016;2022-09-17T17:03:03;0.93;;;0.57;;
24901;SDS011;31328;51.402;0.016;2022-09-17T17:05:29;0.65;;;0.38;;
24901;SDS011;31328;51.402;0.016;2022-09-17T17:07:56;0.47;;;0.30;;
24901;SDS011;31328;51.402;0.016;2022-09-17T17:10:23;1.75;;;0.45;;
24901;SDS011;31328;51.402;0.016;2022-09-17T17:12:51;0.90;;;0.35;;
24901;SDS011;31328;51.402;0.016;2022-09-17T17:15:17;1.20;;;0.40;;
24901;SDS011;31328;51.402;0.016;2022-09-17T17:17:44;1.58;;;0.30;;
24901;SDS011;31328;51.402;0.016;2022-09-17T17:20:10;1.63;;;0.50;;
24901;SDS011;31328;51.402;0.016;2022-09-17T17:22:38;1.13;;;0.55;;
24901;SDS011;31328;51.402;0.016;2022-09-17T17:25:06;2.65;;;0.43;;
24901;SDS011;31328;51.402;0.016;2022-09-17T17:27:33;2.28;;;0.50;;
24901;SDS011;31328;51.402;0.016;2022-09-17T17:30:00;1.58;;;0.40;;
24901;SDS011;31328;51.402;0.016;2022-09-17T17:32:30;1.35;;;0.30;;
24901;SDS011;31328;51.402;0.016;2022-09-17T17:34:56;0.88;;;0.45;;
24901;SDS011;31328;51.402;0.016;2022-09-17T17:37:22;0.85;;;0.30;;
24901;SDS011;31328;51.402;0.016;2022-09-17T17:39:49;0.60;;;0.35;;
24901;SDS011;31328;51.402;0.016;2022-09-17T17:42:15;0.55;;;0.35;;
24901;SDS011;31328;51.402;0.016;2022-09-17T17:44:41;0.90;;;0.40;;
24901;SDS011;31328;51.402;0.016;2022-09-17T17:47:08;1.30;;;0.60;;
24901;SDS011;31328;51.402;0.016;2022-09-17T17:49:34;1.13;;;0.38;;
24901;SDS011;31328;51.402;0.016;2022-09-17T17:52:00;0.80;;;0.30;;
24901;SDS011;31328;51.402;0.016;2022-09-17T17:54:27;0.95;;;0.40;;
24901;SDS011;31328;51.402;0.016;2022-09-17T17:56:54;2.25;;;0.60;;
24901;SDS011;31328;51.402;0.016;2022-09-17T17:59:20;1.20;;;0.80;;
24901;SDS011;31328;51.402;0.016;2022-09-17T18:01:47;1.05;;;0.50;;
24901;SDS011;31328;51.402;0.016;2022-09-17T18:04:13;2.85;;;0.50;;
24901;SDS011;31328;51.402;0.016;2022-09-17T18:06:39;1.35;;;0.57;;
24901;SDS011;31328;51.402;0.016;2022-09-17T18:09:07;0.75;;;0.60;;
24901;SDS011;31328;51.402;0.016;2022-09-17T18:11:34;1.77;;;0.50;;
24901;SDS011;31328;51.402;0.016;2022-09-17T18:14:00;1.75;;;0.40;;
24901;SDS011;31328;51.402;0.016;2022-09-17T18:16:27;0.88;;;0.47;;
24901;SDS011;31328;51.402;0.016;2022-09-17T18:18:55;0.90;;;0.30;;
24901;SDS011;31328;51.402;0.016;2022-09-17T18:21:22;1.13;;;0.82;;
24901;SDS011;31328;51.402;0.016;2022-09-17T18:23:50;1.98;;;0.60;;
24901;SDS011;31328;51.402;0.016;2022-09-17T18:26:21;1.73;;;0.68;;
24901;SDS011;31328;51.402;0.016;2022-09-17T18:28:49;2.53;;;0.95;;
24901;SDS011;31328;51.402;0.016;2022-09-17T18:31:29;1.13;;;0.70;;
24901;SDS011;31328;51.402;0.016;2022-09-17T18:33:57;2.45;;;0.93;;
24901;SDS011;31328;51.402;0.016;2022-09-17T18:36:26;3.65;;;1.10;;
24901;SDS011;31328;51.402;0.016;2022-09-17T18:38:55;2.20;;;0.93;;
24901;SDS011;31328;51.402;0.016;2022-09-17T18:41:27;1.48;;;0.80;;
24901;SDS011;31328;51.402;0.016;2022-09-17T18:43:54;2.80;;;1.30;;
24901;SDS011;31328;51.402;0.016;2022-09-17T18:46:22;3.45;;;1.00;;
24901;SDS011;31328;51.402;0.016;2022-09-17T18:48:51;4.28;;;1.30;;
24901;SDS011;31328;51.402;0.016;2022-09-17T18:51:18;1.77;;;1.00;;
24901;SDS011;31328;51.402;0.016;2022-09-17T18:53:46;1.38;;;1.10;;
24901;SDS011;31328;51.402;0.016;2022-09-17T18:56:14;3.00;;;1.17;;
24901;SDS011;31328;51.402;0.016;2022-09-17T18:58:44;2.58;;;1.00;;
24901;SDS011;31328;51.402;0.016;2022-09-17T19:01:11;2.75;;;1.50;;
24901;SDS011;31328;51.402;0.016;2022-09-17T19:03:38;2.55;;;1.40;;
24901;SDS011;31328;51.402;0.016;2022-09-17T19:06:05;2.88;;;1.92;;
24901;SDS011;31328;51.402;0.016;2022-09-17T19:08:33;3.53;;;1.33;;
24901;SDS011;31328;51.402;0.016;2022-09-17T19:11:00;3.97;;;2.33;;